sensor_id;sensor_type;location;lat;lon;timestamp;P1;durP1;ratioP1;P2;durP2;ratioP2
68178;SDS011;54998;42.656;23.382;2023-03-31T00:00:16;13.88;;;6.93;;
68178;SDS011;54998;42.656;23.382;2023-03-31T00:02:42;11.65;;;6.45;;
68178;SDS011;54998;42.656;23.382;2023-03-31T00:05:09;12.02;;;6.32;;
68178;SDS011;54998;42.656;23.382;2023-03-31T00:07:35;10.80;;;6.07;;
68178;SDS011;54998;42.656;23.382;2023-03-31T00:10:04;14.63;;;6.65;;
68178;SDS011;54998;42.656;23.382;2023-03-31T00:12:30;11.65;;;5.32;;
68178;SDS011;54998;42.656;23.382;2023-03-31T00:14:55;12.07;;;5.75;;
68178;SDS011;54998;42.656;23.382;2023-03-31T00:17:20;11.43;;;5.43;;
68178;SDS011;54998;42.656;23.382;2023-03-31T00:19:46;13.95;;;5.93;;
68178;SDS011;54998;42.656;23.382;2023-03-31T00:22:14;16.63;;;8.57;;
68178;SDS011;54998;42.656;23.382;2023-03-31T00:24:42;12.38;;;5.43;;
68178;SDS011;54998;42.656;23.382;2023-03-31T00:27:08;13.48;;;5.25;;
68178;SDS011;54998;42.656;23.382;2023-03-31T00:29:35;12.35;;;6.10;;
68178;SDS011;54998;42.656;23.382;2023-03-31T00:32:05;14.00;;;6.13;;
68178;SDS011;54998;42.656;23.382;2023-03-31T00:34:30;12.13;;;6.57;;
68178;SDS011;54998;42.656;23.382;2023-03-31T00:36:56;12.65;;;5.90;;
68178;SDS011;54998;42.656;23.382;2023-03-31T00:39:22;8.55;;;5.07;;
68178;SDS011;54998;42.656;23.382;2023-03-31T00:41:53;10.95;;;5.95;;
68178;SDS011;54998;42.656;23.382;2023-03-31T00:44:20;15.77;;;6.07;;
68178;SDS011;54998;42.656;23.382;2023-03-31T00:49:18;10.63;;;5.50;;
68178;SDS011;54998;42.656;23.382;2023-03-31T00:51:50;10.73;;;4.97;;
68178;SDS011;54998;42.656;23.382;2023-03-31T00:54:18;9.52;;;4.80;;
68178;SDS011;54998;42.656;23.382;2023-03-31T00:56:45;9.45;;;5.13;;
68178;SDS011;54998;42.656;23.382;2023-03-31T00:59:13;10.38;;;5.22;;
68178;SDS011;54998;42.656;23.382;2023-03-31T01:01:39;13.95;;;4.05;;
68178;SDS011;54998;42.656;23.382;2023-03-31T01:04:09;7.72;;;3.80;;
68178;SDS011;54998;42.656;23.382;2023-03-31T01:06:41;9.77;;;4.53;;
68178;SDS011;54998;42.656;23.382;2023-03-31T01:09:14;7.80;;;3.53;;
68178;SDS011;54998;42.656;23.382;2023-03-31T01:11:41;7.88;;;4.13;;
68178;SDS011;54998;42.656;23.382;2023-03-31T01:14:10;15.88;;;4.40;;
68178;SDS011;54998;42.656;23.382;2023-03-31T01:16:36;13.07;;;4.10;;
68178;SDS011;54998;42.656;23.382;2023-03-31T01:19:04;12.40;;;3.85;;
68178;SDS011;54998;42.656;23.382;2023-03-31T01:24:42;8.43;;;4.10;;
68178;SDS011;54998;42.656;23.382;2023-03-31T01:47:35;10.63;;;4.30;;
68178;SDS011;54998;42.656;23.382;2023-03-31T01:52:25;11.18;;;5.43;;
68178;SDS011;54998;42.656;23.382;2023-03-31T01:55:08;7.82;;;4.70;;
68178;SDS011;54998;42.656;23.382;2023-03-31T02:00:26;9.63;;;5.07;;
68178;SDS011;54998;42.656;23.382;2023-03-31T02:06:05;10.77;;;5.30;;
68178;SDS011;54998;42.656;23.382;2023-03-31T02:08:40;12.02;;;6.00;;
68178;SDS011;54998;42.656;23.382;2023-03-31T02:11:10;13.82;;;6.50;;
68178;SDS011;54998;42.656;23.382;2023-03-31T02:13:36;12.05;;;4.85;;
68178;SDS011;54998;42.656;23.382;2023-03-31T02:16:07;17.45;;;5.72;;
68178;SDS011;54998;42.656;23.382;2023-03-31T02:18:38;12.45;;;5.57;;
68178;SDS011;54998;42.656;23.382;2023-03-31T02:21:06;13.90;;;6.78;;
68178;SDS011;54998;42.656;23.382;2023-03-31T02:23:32;12.38;;;5.47;;
68178;SDS011;54998;42.656;23.382;2023-03-31T02:28:26;11.48;;;6.93;;
68178;SDS011;54998;42.656;23.382;2023-03-31T02:31:04;14.07;;;6.22;;
68178;SDS011;54998;42.656;23.382;2023-03-31T02:33:30;16.10;;;7.47;;
68178;SDS011;54998;42.656;23.382;2023-03-31T02:35:56;14.32;;;6.90;;
68178;SDS011;54998;42.656;23.382;2023-03-31T02:40:48;14.82;;;7.70;;
68178;SDS011;54998;42.656;23.382;2023-03-31T02:43:14;15.25;;;6.13;;
68178;SDS011;54998;42.656;23.382;2023-03-31T02:48:10;17.88;;;7.78;;
68178;SDS011;54998;42.656;23.382;2023-03-31T02:53:51;14.25;;;5.38;;
68178;SDS011;54998;42.656;23.382;2023-03-31T03:10:29;18.45;;;8.13;;
68178;SDS011;54998;42.656;23.382;2023-03-31T03:16:11;19.25;;;7.85;;
68178;SDS011;54998;42.656;23.382;2023-03-31T03:18:44;13.32;;;7.38;;
68178;SDS011;54998;42.656;23.382;2023-03-31T03:21:16;17.50;;;7.15;;
68178;SDS011;54998;42.656;23.382;2023-03-31T03:23:42;16.23;;;7.57;;
68178;SDS011;54998;42.656;23.382;2023-03-31T03:26:07;16.33;;;8.00;;
68178;SDS011;54998;42.656;23.382;2023-03-31T03:28:33;17.17;;;9.48;;
68178;SDS011;54998;42.656;23.382;2023-03-31T03:30:58;15.57;;;7.63;;
68178;SDS011;54998;42.656;23.382;2023-03-31T03:33:23;20.27;;;9.43;;
68178;SDS011;54998;42.656;23.382;2023-03-31T03:35:49;15.23;;;8.43;;
68178;SDS011;54998;42.656;23.382;2023-03-31T03:38:14;16.45;;;9.18;;
68178;SDS011;54998;42.656;23.382;2023-03-31T03:40:40;18.65;;;7.93;;
68178;SDS011;54998;42.656;23.382;2023-03-31T03:43:05;8.63;;;4.05;;
68178;SDS011;54998;42.656;23.382;2023-03-31T03:45:30;8.10;;;4.70;;
68178;SDS011;54998;42.656;23.382;2023-03-31T03:47:56;5.78;;;3.97;;
68178;SDS011;54998;42.656;23.382;2023-03-31T03:50:21;10.05;;;3.95;;
68178;SDS011;54998;42.656;23.382;2023-03-31T03:52:46;10.27;;;5.85;;
68178;SDS011;54998;42.656;23.382;2023-03-31T03:55:12;6.57;;;3.35;;
68178;SDS011;54998;42.656;23.382;2023-03-31T03:57:37;10.20;;;4.15;;
68178;SDS011;54998;42.656;23.382;2023-03-31T04:00:03;9.75;;;4.78;;
68178;SDS011;54998;42.656;23.382;2023-03-31T04:02:34;7.13;;;4.50;;
68178;SDS011;54998;42.656;23.382;2023-03-31T04:04:59;6.60;;;3.72;;
68178;SDS011;54998;42.656;23.382;2023-03-31T04:07:24;10.15;;;3.60;;
68178;SDS011;54998;42.656;23.382;2023-03-31T04:09:51;7.45;;;3.83;;
68178;SDS011;54998;42.656;23.382;2023-03-31T04:12:16;9.95;;;4.20;;
68178;SDS011;54998;42.656;23.382;2023-03-31T04:14:44;6.47;;;3.80;;
68178;SDS011;54998;42.656;23.382;2023-03-31T04:17:12;7.90;;;2.92;;
68178;SDS011;54998;42.656;23.382;2023-03-31T04:19:39;7.85;;;3.20;;
68178;SDS011;54998;42.656;23.382;2023-03-31T04:22:06;7.63;;;4.28;;
68178;SDS011;54998;42.656;23.382;2023-03-31T04:24:35;8.27;;;4.82;;
68178;SDS011;54998;42.656;23.382;2023-03-31T04:27:02;10.00;;;4.80;;
68178;SDS011;54998;42.656;23.382;2023-03-31T04:29:31;10.93;;;5.75;;
68178;SDS011;54998;42.656;23.382;2023-03-31T04:31:58;10.57;;;5.97;;
68178;SDS011;54998;42.656;23.382;2023-03-31T04:34:24;12.30;;;5.72;;
68178;SDS011;54998;42.656;23.382;2023-03-31T04:36:58;12.32;;;7.03;;
68178;SDS011;54998;42.656;23.382;2023-03-31T04:39:26;10.55;;;7.50;;
68178;SDS011;54998;42.656;23.382;2023-03-31T04:41:54;13.07;;;6.60;;
68178;SDS011;54998;42.656;23.382;2023-03-31T04:44:20;8.48;;;4.10;;
68178;SDS011;54998;42.656;23.382;2023-03-31T04:46:46;7.53;;;3.75;;
68178;SDS011;54998;42.656;23.382;2023-03-31T04:49:11;10.68;;;3.90;;
68178;SDS011;54998;42.656;23.382;2023-03-31T04:51:36;9.10;;;4.20;;
68178;SDS011;54998;42.656;23.382;2023-03-31T04:54:02;9.00;;;4.75;;
68178;SDS011;54998;42.656;23.382;2023-03-31T04:56:27;10.73;;;5.00;;
68178;SDS011;54998;42.656;23.382;2023-03-31T04:58:53;9.32;;;5.00;;
68178;SDS011;54998;42.656;23.382;2023-03-31T05:01:18;12.68;;;5.68;;
68178;SDS011;54998;42.656;23.382;2023-03-31T05:03:44;10.10;;;5.25;;
68178;SDS011;54998;42.656;23.382;2023-03-31T05:06:11;8.25;;;4.05;;
68178;SDS011;54998;42.656;23.382;2023-03-31T05:08:38;7.10;;;3.63;;
68178;SDS011;54998;42.656;23.382;2023-03-31T05:11:03;8.48;;;4.28;;
68178;SDS011;54998;42.656;23.382;2023-03-31T05:13:30;9.90;;;4.38;;
68178;SDS011;54998;42.656;23.382;2023-03-31T05:15:55;9.90;;;4.63;;
68178;SDS011;54998;42.656;23.382;2023-03-31T05:18:20;6.93;;;3.90;;
68178;SDS011;54998;42.656;23.382;2023-03-31T05:20:46;8.57;;;4.35;;
68178;SDS011;54998;42.656;23.382;2023-03-31T05:23:11;7.57;;;4.07;;
68178;SDS011;54998;42.656;23.382;2023-03-31T05:25:37;7.68;;;4.30;;
68178;SDS011;54998;42.656;23.382;2023-03-31T05:28:03;9.45;;;4.85;;
68178;SDS011;54998;42.656;23.382;2023-03-31T05:30:28;12.02;;;5.80;;
68178;SDS011;54998;42.656;23.382;2023-03-31T05:32:54;9.23;;;4.65;;
68178;SDS011;54998;42.656;23.382;2023-03-31T05:35:20;11.02;;;5.85;;
68178;SDS011;54998;42.656;23.382;2023-03-31T05:37:45;15.88;;;6.05;;
68178;SDS011;54998;42.656;23.382;2023-03-31T05:40:11;13.98;;;6.22;;
68178;SDS011;54998;42.656;23.382;2023-03-31T05:42:37;18.85;;;6.38;;
68178;SDS011;54998;42.656;23.382;2023-03-31T05:45:02;15.70;;;5.93;;
68178;SDS011;54998;42.656;23.382;2023-03-31T05:49:57;18.10;;;7.18;;
68178;SDS011;54998;42.656;23.382;2023-03-31T05:52:22;11.57;;;6.80;;
68178;SDS011;54998;42.656;23.382;2023-03-31T05:54:48;22.63;;;7.47;;
68178;SDS011;54998;42.656;23.382;2023-03-31T05:57:13;16.23;;;7.18;;
68178;SDS011;54998;42.656;23.382;2023-03-31T05:59:39;16.75;;;7.00;;
68178;SDS011;54998;42.656;23.382;2023-03-31T06:02:06;12.07;;;6.90;;
68178;SDS011;54998;42.656;23.382;2023-03-31T06:04:32;11.30;;;5.78;;
68178;SDS011;54998;42.656;23.382;2023-03-31T06:06:57;13.20;;;6.75;;
68178;SDS011;54998;42.656;23.382;2023-03-31T06:09:26;11.02;;;5.55;;
68178;SDS011;54998;42.656;23.382;2023-03-31T06:11:52;11.82;;;5.55;;
68178;SDS011;54998;42.656;23.382;2023-03-31T06:14:17;15.32;;;5.80;;
68178;SDS011;54998;42.656;23.382;2023-03-31T06:19:15;11.02;;;5.47;;
68178;SDS011;54998;42.656;23.382;2023-03-31T06:21:41;11.35;;;6.00;;
68178;SDS011;54998;42.656;23.382;2023-03-31T06:24:07;8.68;;;4.68;;
68178;SDS011;54998;42.656;23.382;2023-03-31T06:26:33;15.68;;;6.00;;
68178;SDS011;54998;42.656;23.382;2023-03-31T06:28:58;10.77;;;4.80;;
68178;SDS011;54998;42.656;23.382;2023-03-31T06:31:24;12.75;;;4.65;;
68178;SDS011;54998;42.656;23.382;2023-03-31T06:33:50;10.73;;;4.60;;
68178;SDS011;54998;42.656;23.382;2023-03-31T06:36:16;17.90;;;5.30;;
68178;SDS011;54998;42.656;23.382;2023-03-31T06:38:43;12.85;;;5.50;;
68178;SDS011;54998;42.656;23.382;2023-03-31T06:41:10;8.60;;;4.47;;
68178;SDS011;54998;42.656;23.382;2023-03-31T06:43:38;13.00;;;4.43;;
68178;SDS011;54998;42.656;23.382;2023-03-31T06:46:04;9.93;;;4.40;;
68178;SDS011;54998;42.656;23.382;2023-03-31T06:48:30;14.55;;;4.38;;
68178;SDS011;54998;42.656;23.382;2023-03-31T06:50:57;12.90;;;5.50;;
68178;SDS011;54998;42.656;23.382;2023-03-31T06:53:24;9.30;;;4.97;;
68178;SDS011;54998;42.656;23.382;2023-03-31T06:55:50;16.17;;;5.63;;
68178;SDS011;54998;42.656;23.382;2023-03-31T06:58:15;10.45;;;5.07;;
68178;SDS011;54998;42.656;23.382;2023-03-31T07:00:41;14.68;;;5.72;;
68178;SDS011;54998;42.656;23.382;2023-03-31T07:03:06;12.27;;;5.75;;
68178;SDS011;54998;42.656;23.382;2023-03-31T07:05:32;17.10;;;5.97;;
68178;SDS011;54998;42.656;23.382;2023-03-31T07:07:59;12.10;;;5.45;;
68178;SDS011;54998;42.656;23.382;2023-03-31T07:10:25;13.95;;;4.95;;
68178;SDS011;54998;42.656;23.382;2023-03-31T07:12:52;18.58;;;5.63;;
68178;SDS011;54998;42.656;23.382;2023-03-31T07:15:18;11.18;;;5.35;;
68178;SDS011;54998;42.656;23.382;2023-03-31T07:17:44;9.63;;;4.68;;
68178;SDS011;54998;42.656;23.382;2023-03-31T07:20:10;10.63;;;4.43;;
68178;SDS011;54998;42.656;23.382;2023-03-31T07:22:43;15.45;;;5.00;;
68178;SDS011;54998;42.656;23.382;2023-03-31T07:25:10;18.83;;;6.75;;
68178;SDS011;54998;42.656;23.382;2023-03-31T07:27:37;12.05;;;5.53;;
68178;SDS011;54998;42.656;23.382;2023-03-31T07:30:04;8.55;;;4.93;;
68178;SDS011;54998;42.656;23.382;2023-03-31T07:32:31;10.13;;;5.47;;
68178;SDS011;54998;42.656;23.382;2023-03-31T07:34:57;13.68;;;5.78;;
68178;SDS011;54998;42.656;23.382;2023-03-31T07:37:23;10.23;;;5.70;;
68178;SDS011;54998;42.656;23.382;2023-03-31T07:39:48;10.63;;;5.60;;
68178;SDS011;54998;42.656;23.382;2023-03-31T07:42:14;7.10;;;4.78;;
68178;SDS011;54998;42.656;23.382;2023-03-31T07:44:39;14.15;;;5.80;;
68178;SDS011;54998;42.656;23.382;2023-03-31T07:47:05;13.32;;;5.90;;
68178;SDS011;54998;42.656;23.382;2023-03-31T07:49:31;8.35;;;5.10;;
68178;SDS011;54998;42.656;23.382;2023-03-31T07:51:57;12.52;;;6.18;;
68178;SDS011;54998;42.656;23.382;2023-03-31T07:54:23;12.20;;;6.18;;
68178;SDS011;54998;42.656;23.382;2023-03-31T07:56:49;10.02;;;5.35;;
68178;SDS011;54998;42.656;23.382;2023-03-31T07:59:14;11.45;;;5.22;;
68178;SDS011;54998;42.656;23.382;2023-03-31T08:01:40;10.63;;;5.47;;
68178;SDS011;54998;42.656;23.382;2023-03-31T08:04:05;8.93;;;5.10;;
68178;SDS011;54998;42.656;23.382;2023-03-31T08:09:06;6.97;;;4.07;;
68178;SDS011;54998;42.656;23.382;2023-03-31T08:11:32;6.13;;;3.67;;
68178;SDS011;54998;42.656;23.382;2023-03-31T08:13:57;5.57;;;2.90;;
68178;SDS011;54998;42.656;23.382;2023-03-31T08:16:23;8.00;;;2.80;;
68178;SDS011;54998;42.656;23.382;2023-03-31T08:18:48;13.43;;;3.22;;
68178;SDS011;54998;42.656;23.382;2023-03-31T08:21:14;7.55;;;3.45;;
68178;SDS011;54998;42.656;23.382;2023-03-31T08:23:39;6.30;;;3.00;;
68178;SDS011;54998;42.656;23.382;2023-03-31T08:26:09;8.80;;;2.75;;
68178;SDS011;54998;42.656;23.382;2023-03-31T08:28:38;4.80;;;2.38;;
68178;SDS011;54998;42.656;23.382;2023-03-31T08:31:04;4.07;;;2.70;;
68178;SDS011;54998;42.656;23.382;2023-03-31T08:33:31;6.80;;;2.67;;
68178;SDS011;54998;42.656;23.382;2023-03-31T08:36:01;4.75;;;2.70;;
68178;SDS011;54998;42.656;23.382;2023-03-31T08:38:32;4.00;;;2.13;;
68178;SDS011;54998;42.656;23.382;2023-03-31T08:43:36;4.60;;;1.77;;
68178;SDS011;54998;42.656;23.382;2023-03-31T08:46:11;6.45;;;2.15;;
68178;SDS011;54998;42.656;23.382;2023-03-31T08:48:40;5.80;;;1.85;;
68178;SDS011;54998;42.656;23.382;2023-03-31T08:51:21;5.63;;;2.17;;
68178;SDS011;54998;42.656;23.382;2023-03-31T08:56:23;5.72;;;2.88;;
68178;SDS011;54998;42.656;23.382;2023-03-31T08:58:51;6.18;;;2.03;;
68178;SDS011;54998;42.656;23.382;2023-03-31T09:12:22;7.25;;;2.22;;
68178;SDS011;54998;42.656;23.382;2023-03-31T09:17:34;6.50;;;2.22;;
68178;SDS011;54998;42.656;23.382;2023-03-31T09:20:06;8.60;;;2.20;;
68178;SDS011;54998;42.656;23.382;2023-03-31T09:22:42;4.35;;;1.80;;
68178;SDS011;54998;42.656;23.382;2023-03-31T09:25:17;2.40;;;1.25;;
68178;SDS011;54998;42.656;23.382;2023-03-31T09:27:47;5.28;;;2.22;;
68178;SDS011;54998;42.656;23.382;2023-03-31T09:35:46;8.32;;;1.90;;
68178;SDS011;54998;42.656;23.382;2023-03-31T09:38:12;6.22;;;2.00;;
68178;SDS011;54998;42.656;23.382;2023-03-31T09:40:39;4.47;;;1.50;;
68178;SDS011;54998;42.656;23.382;2023-03-31T09:43:05;4.55;;;1.73;;
68178;SDS011;54998;42.656;23.382;2023-03-31T09:45:35;5.82;;;1.88;;
68178;SDS011;54998;42.656;23.382;2023-03-31T09:48:02;5.88;;;1.98;;
68178;SDS011;54998;42.656;23.382;2023-03-31T09:50:32;4.82;;;1.88;;
68178;SDS011;54998;42.656;23.382;2023-03-31T09:53:04;8.60;;;2.38;;
68178;SDS011;54998;42.656;23.382;2023-03-31T09:55:59;4.30;;;1.85;;
68178;SDS011;54998;42.656;23.382;2023-03-31T09:58:26;7.60;;;2.35;;
68178;SDS011;54998;42.656;23.382;2023-03-31T10:01:10;4.30;;;1.98;;
68178;SDS011;54998;42.656;23.382;2023-03-31T10:06:16;4.43;;;1.65;;
68178;SDS011;54998;42.656;23.382;2023-03-31T10:08:55;6.65;;;2.08;;
68178;SDS011;54998;42.656;23.382;2023-03-31T10:11:23;3.20;;;1.48;;
68178;SDS011;54998;42.656;23.382;2023-03-31T10:16:53;5.10;;;2.65;;
68178;SDS011;54998;42.656;23.382;2023-03-31T10:19:27;4.32;;;2.20;;
68178;SDS011;54998;42.656;23.382;2023-03-31T10:24:22;6.10;;;2.10;;
68178;SDS011;54998;42.656;23.382;2023-03-31T10:26:48;5.63;;;2.00;;
68178;SDS011;54998;42.656;23.382;2023-03-31T10:29:19;3.15;;;1.33;;
68178;SDS011;54998;42.656;23.382;2023-03-31T10:31:51;4.55;;;2.10;;
68178;SDS011;54998;42.656;23.382;2023-03-31T10:34:17;5.82;;;1.80;;
68178;SDS011;54998;42.656;23.382;2023-03-31T10:36:44;5.65;;;2.40;;
68178;SDS011;54998;42.656;23.382;2023-03-31T10:39:12;5.25;;;1.85;;
68178;SDS011;54998;42.656;23.382;2023-03-31T10:41:41;4.13;;;2.33;;
68178;SDS011;54998;42.656;23.382;2023-03-31T10:44:28;5.22;;;2.03;;
68178;SDS011;54998;42.656;23.382;2023-03-31T10:46:54;4.93;;;2.03;;
68178;SDS011;54998;42.656;23.382;2023-03-31T10:51:54;5.03;;;1.88;;
68178;SDS011;54998;42.656;23.382;2023-03-31T10:54:24;5.82;;;1.60;;
68178;SDS011;54998;42.656;23.382;2023-03-31T10:56:51;4.90;;;1.73;;
68178;SDS011;54998;42.656;23.382;2023-03-31T10:59:24;6.00;;;1.98;;
68178;SDS011;54998;42.656;23.382;2023-03-31T11:02:18;6.07;;;1.90;;
68178;SDS011;54998;42.656;23.382;2023-03-31T11:08:04;3.95;;;1.52;;
68178;SDS011;54998;42.656;23.382;2023-03-31T11:15:31;5.25;;;1.90;;
68178;SDS011;54998;42.656;23.382;2023-03-31T11:37:55;5.65;;;2.13;;
68178;SDS011;54998;42.656;23.382;2023-03-31T11:43:28;4.57;;;1.70;;
68178;SDS011;54998;42.656;23.382;2023-03-31T11:46:12;4.35;;;2.08;;
68178;SDS011;54998;42.656;23.382;2023-03-31T11:53:45;5.00;;;1.55;;
68178;SDS011;54998;42.656;23.382;2023-03-31T11:56:12;7.32;;;1.92;;
68178;SDS011;54998;42.656;23.382;2023-03-31T11:58:43;5.45;;;1.50;;
68178;SDS011;54998;42.656;23.382;2023-03-31T12:01:56;2.60;;;1.30;;
68178;SDS011;54998;42.656;23.382;2023-03-31T12:04:10;4.47;;;1.73;;
68178;SDS011;54998;42.656;23.382;2023-03-31T12:06:39;3.45;;;1.23;;
68178;SDS011;54998;42.656;23.382;2023-03-31T12:09:10;5.85;;;1.90;;
68178;SDS011;54998;42.656;23.382;2023-03-31T12:11:55;4.63;;;2.00;;
68178;SDS011;54998;42.656;23.382;2023-03-31T12:17:24;4.88;;;1.65;;
68178;SDS011;54998;42.656;23.382;2023-03-31T12:19:59;4.72;;;2.05;;
68178;SDS011;54998;42.656;23.382;2023-03-31T12:22:43;5.07;;;1.73;;
68178;SDS011;54998;42.656;23.382;2023-03-31T12:25:11;4.30;;;1.90;;
68178;SDS011;54998;42.656;23.382;2023-03-31T12:27:40;6.75;;;2.25;;
68178;SDS011;54998;42.656;23.382;2023-03-31T12:30:14;4.53;;;1.80;;
68178;SDS011;54998;42.656;23.382;2023-03-31T12:32:48;3.58;;;1.80;;
68178;SDS011;54998;42.656;23.382;2023-03-31T12:35:37;4.88;;;1.88;;
68178;SDS011;54998;42.656;23.382;2023-03-31T12:40:57;5.60;;;1.90;;
68178;SDS011;54998;42.656;23.382;2023-03-31T12:43:49;3.83;;;1.60;;
68178;SDS011;54998;42.656;23.382;2023-03-31T12:46:28;4.90;;;1.67;;
68178;SDS011;54998;42.656;23.382;2023-03-31T12:51:54;4.38;;;1.75;;
68178;SDS011;54998;42.656;23.382;2023-03-31T12:57:33;4.43;;;2.10;;
68178;SDS011;54998;42.656;23.382;2023-03-31T13:00:19;2.75;;;1.60;;
68178;SDS011;54998;42.656;23.382;2023-03-31T13:02:47;5.72;;;2.00;;
68178;SDS011;54998;42.656;23.382;2023-03-31T13:08:04;5.88;;;1.77;;
68178;SDS011;54998;42.656;23.382;2023-03-31T13:10:50;6.07;;;1.80;;
68178;SDS011;54998;42.656;23.382;2023-03-31T13:13:22;9.52;;;2.28;;
68178;SDS011;54998;42.656;23.382;2023-03-31T13:15:50;7.40;;;2.10;;
68178;SDS011;54998;42.656;23.382;2023-03-31T13:18:18;2.70;;;1.67;;
68178;SDS011;54998;42.656;23.382;2023-03-31T13:20:45;3.92;;;2.03;;
68178;SDS011;54998;42.656;23.382;2023-03-31T13:23:22;4.28;;;1.77;;
68178;SDS011;54998;42.656;23.382;2023-03-31T13:25:56;4.72;;;1.73;;
68178;SDS011;54998;42.656;23.382;2023-03-31T13:30:51;5.20;;;1.70;;
68178;SDS011;54998;42.656;23.382;2023-03-31T13:35:53;4.28;;;2.10;;
68178;SDS011;54998;42.656;23.382;2023-03-31T13:52:08;6.47;;;1.98;;
68178;SDS011;54998;42.656;23.382;2023-03-31T13:54:45;5.63;;;2.42;;
68178;SDS011;54998;42.656;23.382;2023-03-31T14:14:00;5.95;;;1.92;;
68178;SDS011;54998;42.656;23.382;2023-03-31T14:16:28;7.32;;;1.60;;
68178;SDS011;54998;42.656;23.382;2023-03-31T14:19:09;4.13;;;1.80;;
68178;SDS011;54998;42.656;23.382;2023-03-31T14:21:40;4.22;;;2.10;;
68178;SDS011;54998;42.656;23.382;2023-03-31T14:30:15;8.20;;;1.92;;
68178;SDS011;54998;42.656;23.382;2023-03-31T14:35:31;7.03;;;2.22;;
68178;SDS011;54998;42.656;23.382;2023-03-31T14:38:03;5.63;;;2.33;;
68178;SDS011;54998;42.656;23.382;2023-03-31T14:40:34;5.53;;;2.25;;
68178;SDS011;54998;42.656;23.382;2023-03-31T14:43:20;4.95;;;2.00;;
68178;SDS011;54998;42.656;23.382;2023-03-31T14:45:58;4.93;;;1.85;;
68178;SDS011;54998;42.656;23.382;2023-03-31T14:48:28;5.15;;;2.10;;
68178;SDS011;54998;42.656;23.382;2023-03-31T14:50:56;4.00;;;1.65;;
68178;SDS011;54998;42.656;23.382;2023-03-31T14:53:24;6.32;;;2.88;;
68178;SDS011;54998;42.656;23.382;2023-03-31T14:55:53;4.72;;;1.83;;
68178;SDS011;54998;42.656;23.382;2023-03-31T14:58:26;4.85;;;1.88;;
68178;SDS011;54998;42.656;23.382;2023-03-31T15:00:57;4.53;;;1.60;;
68178;SDS011;54998;42.656;23.382;2023-03-31T15:03:23;7.68;;;2.30;;
68178;SDS011;54998;42.656;23.382;2023-03-31T15:05:50;4.70;;;2.05;;
68178;SDS011;54998;42.656;23.382;2023-03-31T15:08:20;10.63;;;2.17;;
68178;SDS011;54998;42.656;23.382;2023-03-31T15:10:48;4.88;;;1.77;;
68178;SDS011;54998;42.656;23.382;2023-03-31T15:13:18;6.70;;;1.90;;
68178;SDS011;54998;42.656;23.382;2023-03-31T15:15:49;4.78;;;1.75;;
68178;SDS011;54998;42.656;23.382;2023-03-31T15:18:15;6.57;;;1.90;;
68178;SDS011;54998;42.656;23.382;2023-03-31T15:20:42;5.10;;;1.80;;
68178;SDS011;54998;42.656;23.382;2023-03-31T15:23:19;4.97;;;2.50;;
68178;SDS011;54998;42.656;23.382;2023-03-31T15:25:49;9.70;;;2.00;;
68178;SDS011;54998;42.656;23.382;2023-03-31T15:28:19;8.32;;;3.60;;
68178;SDS011;54998;42.656;23.382;2023-03-31T15:30:46;6.95;;;2.00;;
68178;SDS011;54998;42.656;23.382;2023-03-31T15:33:17;5.85;;;1.90;;
68178;SDS011;54998;42.656;23.382;2023-03-31T15:35:46;7.97;;;2.45;;
68178;SDS011;54998;42.656;23.382;2023-03-31T15:38:13;4.65;;;2.00;;
68178;SDS011;54998;42.656;23.382;2023-03-31T15:40:42;6.70;;;2.72;;
68178;SDS011;54998;42.656;23.382;2023-03-31T15:43:18;4.82;;;2.20;;
68178;SDS011;54998;42.656;23.382;2023-03-31T15:46:24;5.85;;;2.10;;
68178;SDS011;54998;42.656;23.382;2023-03-31T15:49:20;6.07;;;2.90;;
68178;SDS011;54998;42.656;23.382;2023-03-31T15:51:47;9.45;;;3.30;;
68178;SDS011;54998;42.656;23.382;2023-03-31T15:54:27;8.52;;;3.35;;
68178;SDS011;54998;42.656;23.382;2023-03-31T15:56:59;8.95;;;2.72;;
68178;SDS011;54998;42.656;23.382;2023-03-31T15:59:27;6.28;;;2.47;;
68178;SDS011;54998;42.656;23.382;2023-03-31T16:01:55;7.28;;;2.08;;
68178;SDS011;54998;42.656;23.382;2023-03-31T16:04:24;3.40;;;2.35;;
68178;SDS011;54998;42.656;23.382;2023-03-31T16:06:56;7.13;;;2.63;;
68178;SDS011;54998;42.656;23.382;2023-03-31T16:12:12;7.68;;;2.58;;
68178;SDS011;54998;42.656;23.382;2023-03-31T16:14:44;8.73;;;2.78;;
68178;SDS011;54998;42.656;23.382;2023-03-31T16:17:40;5.57;;;3.25;;
68178;SDS011;54998;42.656;23.382;2023-03-31T16:20:16;6.80;;;3.47;;
68178;SDS011;54998;42.656;23.382;2023-03-31T16:22:48;7.97;;;2.58;;
68178;SDS011;54998;42.656;23.382;2023-03-31T16:25:19;5.72;;;2.47;;
68178;SDS011;54998;42.656;23.382;2023-03-31T16:27:50;8.68;;;2.90;;
68178;SDS011;54998;42.656;23.382;2023-03-31T16:30:32;6.10;;;2.40;;
68178;SDS011;54998;42.656;23.382;2023-03-31T16:33:03;6.30;;;2.70;;
68178;SDS011;54998;42.656;23.382;2023-03-31T16:35:40;7.05;;;3.17;;
68178;SDS011;54998;42.656;23.382;2023-03-31T16:38:08;5.72;;;2.90;;
68178;SDS011;54998;42.656;23.382;2023-03-31T16:40:39;12.05;;;4.15;;
68178;SDS011;54998;42.656;23.382;2023-03-31T16:43:07;8.80;;;2.85;;
68178;SDS011;54998;42.656;23.382;2023-03-31T16:45:38;12.18;;;2.50;;
68178;SDS011;54998;42.656;23.382;2023-03-31T16:48:05;6.72;;;2.90;;
68178;SDS011;54998;42.656;23.382;2023-03-31T16:50:31;6.57;;;3.50;;
68178;SDS011;54998;42.656;23.382;2023-03-31T16:52:56;7.00;;;2.47;;
68178;SDS011;54998;42.656;23.382;2023-03-31T16:55:23;7.32;;;3.13;;
68178;SDS011;54998;42.656;23.382;2023-03-31T16:57:49;5.80;;;2.47;;
68178;SDS011;54998;42.656;23.382;2023-03-31T17:00:15;4.70;;;2.47;;
68178;SDS011;54998;42.656;23.382;2023-03-31T17:02:40;6.22;;;2.55;;
68178;SDS011;54998;42.656;23.382;2023-03-31T17:05:06;5.50;;;1.92;;
68178;SDS011;54998;42.656;23.382;2023-03-31T17:07:32;6.07;;;2.40;;
68178;SDS011;54998;42.656;23.382;2023-03-31T17:09:57;8.35;;;2.85;;
68178;SDS011;54998;42.656;23.382;2023-03-31T17:12:23;5.40;;;2.42;;
68178;SDS011;54998;42.656;23.382;2023-03-31T17:14:48;10.20;;;4.53;;
68178;SDS011;54998;42.656;23.382;2023-03-31T17:17:14;10.80;;;3.80;;
68178;SDS011;54998;42.656;23.382;2023-03-31T17:19:39;10.90;;;4.60;;
68178;SDS011;54998;42.656;23.382;2023-03-31T17:22:05;9.68;;;4.28;;
68178;SDS011;54998;42.656;23.382;2023-03-31T17:24:30;8.40;;;4.55;;
68178;SDS011;54998;42.656;23.382;2023-03-31T17:26:58;9.88;;;4.20;;
68178;SDS011;54998;42.656;23.382;2023-03-31T17:29:24;10.85;;;5.55;;
68178;SDS011;54998;42.656;23.382;2023-03-31T17:31:50;8.95;;;3.50;;
68178;SDS011;54998;42.656;23.382;2023-03-31T17:34:15;8.30;;;3.97;;
68178;SDS011;54998;42.656;23.382;2023-03-31T17:36:42;8.75;;;4.10;;
68178;SDS011;54998;42.656;23.382;2023-03-31T17:39:08;13.10;;;4.25;;
68178;SDS011;54998;42.656;23.382;2023-03-31T17:41:34;5.72;;;2.90;;
68178;SDS011;54998;42.656;23.382;2023-03-31T17:44:00;8.07;;;4.10;;
68178;SDS011;54998;42.656;23.382;2023-03-31T17:46:26;9.05;;;3.33;;
68178;SDS011;54998;42.656;23.382;2023-03-31T17:48:52;10.75;;;3.67;;
68178;SDS011;54998;42.656;23.382;2023-03-31T17:51:19;10.77;;;6.05;;
68178;SDS011;54998;42.656;23.382;2023-03-31T17:53:45;11.30;;;4.80;;
68178;SDS011;54998;42.656;23.382;2023-03-31T17:56:11;15.80;;;6.28;;
68178;SDS011;54998;42.656;23.382;2023-03-31T17:58:37;18.88;;;8.40;;
68178;SDS011;54998;42.656;23.382;2023-03-31T18:01:07;9.63;;;3.95;;